Time;durP1;ratioP1;P1;durP2;ratioP2;P2;SDS_P1;SDS_P2;PMS_P1;PMS_P2;Temp;Humidity;BMP_temperature;BMP_pressure;BME280_temperature;BME280_humidity;BME280_pressure;Samples;Min_cycle;Max_cycle;Signal;HPM_P1;HPM_P2
2023/11/12 00:00:39;;;;;;;10.10;6.80;;;;;;;9.79;96.94;99186.91;5080568;28;20060;-62
2023/11/12 00:03:05;;;;;;;8.40;5.82;;;;;;;9.87;96.47;99206.22;5080853;28;20047;-62
2023/11/12 00:05:30;;;;;;;8.60;5.55;;;;;;;9.72;96.04;99200.00;5081049;28;20036;-63
2023/11/12 00:07:56;;;;;;;9.68;6.43;;;;;;;9.58;96.40;99198.06;5080407;28;20032;-62
2023/11/12 00:10:22;;;;;;;12.32;6.85;;;;;;;9.51;97.44;99197.91;5080725;28;20037;-62
2023/11/12 00:12:47;;;;;;;8.18;5.93;;;;;;;9.52;97.56;99198.72;5080502;28;20051;-63
2023/11/12 00:15:13;;;;;;;9.45;6.28;;;;;;;9.39;97.99;99207.16;5080004;28;20346;-62
2023/11/12 00:17:41;;;;;;;11.27;6.70;;;;;;;9.46;98.01;99202.88;5080298;28;20036;-62
2023/11/12 00:20:07;;;;;;;10.80;6.32;;;;;;;9.42;97.17;99219.22;5080694;28;20127;-62
2023/11/12 00:22:33;;;;;;;8.10;5.65;;;;;;;9.37;97.47;99214.44;5088239;28;20040;-62
2023/11/12 00:24:59;;;;;;;10.00;5.88;;;;;;;9.33;97.44;99207.00;5082133;28;20036;-61
2023/11/12 00:27:24;;;;;;;14.73;7.35;;;;;;;9.31;97.96;99215.06;5081791;28;20348;-62
2023/11/12 00:29:50;;;;;;;10.60;6.43;;;;;;;9.32;97.96;99211.44;5082445;28;20261;-62
2023/11/12 00:32:15;;;;;;;13.18;5.88;;;;;;;9.37;96.81;99214.44;5082727;28;20044;-63
2023/11/12 00:34:42;;;;;;;6.75;4.20;;;;;;;9.43;96.21;99212.94;5086435;28;20055;-62
2023/11/12 00:37:08;;;;;;;7.95;4.65;;;;;;;9.45;95.73;99210.97;5085040;28;20028;-62
2023/11/12 00:39:33;;;;;;;6.72;3.55;;;;;;;9.49;94.90;99210.47;5088636;28;20271;-62
2023/11/12 00:41:59;;;;;;;7.93;4.53;;;;;;;9.46;94.48;99218.72;5079533;28;20082;-63
2023/11/12 00:44:24;;;;;;;6.13;3.53;;;;;;;9.46;94.10;99217.91;5079702;28;20032;-63
2023/11/12 00:46:50;;;;;;;4.93;3.35;;;;;;;9.51;92.73;99210.28;5079693;28;20077;-63
2023/11/12 00:49:15;;;;;;;3.50;2.60;;;;;;;9.53;92.22;99217.06;5079453;28;20029;-63
2023/11/12 00:51:41;;;;;;;3.65;2.47;;;;;;;9.55;91.49;99214.25;5079429;28;20574;-63
2023/11/12 00:54:06;;;;;;;6.07;3.22;;;;;;;9.59;91.28;99219.03;5079939;28;20037;-62
2023/11/12 00:56:32;;;;;;;6.68;2.92;;;;;;;9.58;90.51;99219.19;5080872;28;20033;-64
2023/11/12 00:58:57;;;;;;;5.00;2.47;;;;;;;9.57;90.80;99212.25;5080844;28;20032;-64
2023/11/12 01:01:22;;;;;;;9.05;3.35;;;;;;;9.61;90.65;99218.84;5081701;28;20028;-63
2023/11/12 01:03:48;;;;;;;3.60;2.33;;;;;;;9.63;90.87;99222.16;5080529;28;20101;-63
2023/11/12 01:06:14;;;;;;;4.60;2.30;;;;;;;9.66;91.02;99221.00;5080687;28;20055;-63
2023/11/12 01:08:39;;;;;;;3.08;2.10;;;;;;;9.68;90.74;99222.47;5089168;28;20048;-63
2023/11/12 01:11:05;;;;;;;2.30;2.00;;;;;;;9.70;91.41;99225.78;5081676;28;20070;-64
2023/11/12 01:13:30;;;;;;;2.63;1.63;;;;;;;9.67;90.91;99236.69;5080232;28;20149;-64
2023/11/12 01:15:56;;;;;;;1.75;1.40;;;;;;;9.69;91.16;99239.16;5079815;28;20032;-64
2023/11/12 01:18:21;;;;;;;3.88;1.50;;;;;;;9.75;91.50;99238.50;5079202;28;20047;-63
2023/11/12 01:20:47;;;;;;;2.83;1.42;;;;;;;9.77;91.68;99233.84;5080271;28;20024;-63
2023/11/12 01:23:13;;;;;;;1.73;1.33;;;;;;;9.81;91.40;99241.28;5079949;28;20098;-63
2023/11/12 01:25:40;;;;;;;1.17;1.02;;;;;;;9.81;91.12;99241.28;5083367;28;20272;-63
2023/11/12 01:28:06;;;;;;;3.05;1.40;;;;;;;9.84;91.15;99245.41;5084470;28;20036;-63
2023/11/12 01:30:32;;;;;;;1.70;1.02;;;;;;;9.86;91.83;99248.72;5083784;28;20032;-63
2023/11/12 01:32:57;;;;;;;2.35;1.75;;;;;;;9.79;91.20;99260.94;5083481;28;20119;-63
2023/11/12 01:35:23;;;;;;;9.57;3.72;;;;;;;9.77;91.74;99255.00;5083489;28;20070;-63
2023/11/12 01:37:49;;;;;;;5.53;2.50;;;;;;;9.75;91.88;99255.19;5083976;28;20062;-64
2023/11/12 01:40:16;;;;;;;4.75;3.28;;;;;;;9.81;92.12;99269.53;5083241;28;20422;-63
2023/11/12 01:42:42;;;;;;;4.57;1.90;;;;;;;9.80;91.66;99250.22;5083647;28;20032;-63
2023/11/12 01:45:09;;;;;;;3.72;2.05;;;;;;;9.85;91.31;99255.00;5083761;28;20070;-64
2023/11/12 01:47:39;;;;;;;2.88;1.90;;;;;;;9.87;91.46;99255.66;5082406;28;20029;-63
2023/11/12 01:50:07;;;;;;;3.50;1.80;;;;;;;9.81;91.31;99248.38;5083009;28;20042;-63
2023/11/12 01:52:33;;;;;;;3.10;1.95;;;;;;;9.82;91.66;99261.44;5082529;28;20329;-63
2023/11/12 01:55:01;;;;;;;3.92;1.83;;;;;;;9.85;91.17;99250.53;5082707;28;20060;-63
2023/11/12 01:57:28;;;;;;;3.08;1.73;;;;;;;9.88;91.63;99259.94;5082299;28;20103;-63
2023/11/12 01:59:54;;;;;;;2.75;1.92;;;;;;;9.91;91.78;99268.34;5082861;28;20024;-63
2023/11/12 02:02:20;;;;;;;2.83;1.33;;;;;;;9.89;91.15;99259.78;5091015;28;20058;-63
2023/11/12 02:04:48;;;;;;;1.33;0.98;;;;;;;9.90;91.75;99269.34;5082389;28;20034;-63
2023/11/12 02:07:14;;;;;;;2.10;1.27;;;;;;;9.89;91.17;99275.63;5091132;28;20039;-63
2023/11/12 02:09:41;;;;;;;1.45;1.20;;;;;;;9.97;91.24;99282.72;5081867;28;20033;-62
2023/11/12 02:12:07;;;;;;;2.33;1.27;;;;;;;10.03;91.14;99289.16;5082059;28;20044;-63
2023/11/12 02:14:32;;;;;;;2.38;1.88;;;;;;;10.11;90.16;99292.59;5081809;28;20058;-63
2023/11/12 02:16:59;;;;;;;10.13;3.45;;;;;;;10.18;90.05;99298.03;5080941;28;20108;-63
2023/11/12 02:19:25;;;;;;;8.35;4.15;;;;;;;10.26;89.43;99292.75;5081409;28;20063;-63
2023/11/12 02:21:51;;;;;;;3.65;1.83;;;;;;;10.27;87.65;99291.75;5082297;28;20104;-64
2023/11/12 02:24:17;;;;;;;1.88;1.20;;;;;;;10.19;87.35;99295.22;5081848;28;20041;-63
2023/11/12 02:26:43;;;;;;;2.35;1.48;;;;;;;10.03;87.90;99297.09;5090847;28;20050;-63
2023/11/12 02:29:09;;;;;;;1.45;1.35;;;;;;;9.85;87.72;99286.72;5082292;28;20036;-63
2023/11/12 02:31:34;;;;;;;2.25;1.35;;;;;;;9.92;88.01;99298.28;5083989;28;20218;-63
2023/11/12 02:34:00;;;;;;;3.22;1.52;;;;;;;9.90;88.63;99306.38;5089638;28;20305;-64
2023/11/12 02:36:26;;;;;;;2.42;1.45;;;;;;;9.89;88.96;99296.78;5082541;28;20032;-64
2023/11/12 02:38:51;;;;;;;2.30;1.40;;;;;;;9.88;88.68;99299.59;5082748;28;20028;-64
2023/11/12 02:41:18;;;;;;;2.22;1.30;;;;;;;9.86;89.31;99306.88;5081582;28;20074;-63
2023/11/12 02:43:44;;;;;;;3.25;1.20;;;;;;;9.78;88.65;99288.38;5082005;28;20070;-63
2023/11/12 02:46:09;;;;;;;3.95;1.95;;;;;;;9.68;90.99;99295.66;5081413;28;20253;-62
2023/11/12 02:49:01;;;;;;;5.22;2.80;;;;;;;9.76;91.57;99293.03;5087993;28;20027;-63
2023/11/12 02:51:26;;;;;;;3.63;1.63;;;;;;;9.70;91.07;99298.97;5070012;28;20056;-63
2023/11/12 02:53:54;;;;;;;3.33;1.75;;;;;;;9.70;91.95;99291.88;5082920;28;20048;-64
2023/11/12 02:56:22;;;;;;;2.15;1.45;;;;;;;9.67;91.94;99289.56;5090111;28;20070;-64
2023/11/12 02:58:48;;;;;;;3.20;1.38;;;;;;;9.65;92.44;99302.13;5081943;28;20035;-63
2023/11/12 03:01:14;;;;;;;2.95;1.42;;;;;;;9.39;93.58;99294.38;5083907;28;20024;-63
2023/11/12 03:03:39;;;;;;;4.07;1.92;;;;;;;9.31;93.09;99306.72;5090388;28;20235;-63
2023/11/12 03:06:05;;;;;;;4.28;2.00;;;;;;;9.33;94.00;99308.22;5086783;28;20369;-63
2023/11/12 03:08:30;;;;;;;3.00;1.80;;;;;;;9.33;93.52;99310.84;5081705;28;20043;-62
2023/11/12 03:10:56;;;;;;;3.67;1.90;;;;;;;9.34;93.23;99307.22;5082235;28;20062;-63
2023/11/12 03:13:22;;;;;;;2.88;1.98;;;;;;;9.43;93.65;99310.72;5080782;28;20048;-63
2023/11/12 03:15:47;;;;;;;2.58;1.70;;;;;;;9.53;92.84;99304.28;5082240;28;20033;-63
2023/11/12 03:18:13;;;;;;;2.75;1.58;;;;;;;9.51;91.93;99310.72;5081064;28;20033;-63
2023/11/12 03:20:38;;;;;;;2.28;1.23;;;;;;;9.50;91.86;99322.28;5090269;28;20059;-63
2023/11/12 03:23:04;;;;;;;4.32;2.00;;;;;;;9.29;91.76;99313.00;5080862;28;20345;-63
2023/11/12 03:25:29;;;;;;;3.13;1.80;;;;;;;9.32;91.61;99322.41;5089966;28;20032;-64
2023/11/12 03:27:55;;;;;;;2.50;1.83;;;;;;;9.33;92.42;99328.53;5082183;28;20044;-63
2023/11/12 03:30:20;;;;;;;3.47;1.67;;;;;;;9.26;90.29;99331.81;5081354;28;20028;-63
2023/11/12 03:32:45;;;;;;;3.53;1.88;;;;;;;9.13;89.29;99336.75;5081734;28;20081;-63
2023/11/12 03:35:11;;;;;;;2.22;1.65;;;;;;;9.08;89.40;99340.88;5081334;28;20103;-63
2023/11/12 03:37:37;;;;;;;2.03;1.90;;;;;;;8.71;89.66;99334.19;5081768;28;20046;-62
2023/11/12 03:40:04;;;;;;;2.85;2.08;;;;;;;8.76;88.57;99344.25;5081304;28;20059;-63
2023/11/12 03:42:30;;;;;;;5.47;3.80;;;;;;;8.76;89.61;99339.81;5080900;28;20043;-63
2023/11/12 03:44:56;;;;;;;8.13;3.97;;;;;;;8.74;90.83;99341.78;5080574;28;20036;-63
2023/11/12 03:47:24;;;;;;;5.47;4.07;;;;;;;8.63;92.85;99339.44;5079519;28;20422;-64
2023/11/12 03:49:49;;;;;;;5.32;3.42;;;;;;;8.66;91.79;99336.47;5080952;28;20063;-63
2023/11/12 03:52:15;;;;;;;6.97;4.78;;;;;;;8.69;91.97;99345.88;5080425;28;20223;-63
2023/11/12 03:54:40;;;;;;;7.28;4.15;;;;;;;8.71;92.65;99349.19;5080995;28;20024;-63
2023/11/12 03:57:06;;;;;;;11.07;6.10;;;;;;;8.79;92.87;99349.22;5081291;28;20036;-63
2023/11/12 03:59:31;;;;;;;3.88;3.05;;;;;;;8.86;92.48;99345.78;5080654;28;20032;-63
2023/11/12 04:01:57;;;;;;;5.35;3.65;;;;;;;8.84;92.46;99346.91;5088871;28;20316;-63
2023/11/12 04:04:22;;;;;;;7.63;3.92;;;;;;;8.81;93.35;99342.78;5090508;28;20039;-63
2023/11/12 04:06:47;;;;;;;5.78;3.40;;;;;;;8.90;93.80;99346.28;5080077;28;20042;-63
2023/11/12 04:09:13;;;;;;;5.07;3.70;;;;;;;8.90;93.04;99347.09;5079769;28;20037;-63
2023/11/12 04:11:40;;;;;;;7.93;3.78;;;;;;;8.92;92.95;99339.03;5080537;28;20032;-64
2023/11/12 04:14:09;;;;;;;5.25;3.45;;;;;;;8.93;93.02;99344.16;5079904;28;20036;-63
2023/11/12 04:16:35;;;;;;;5.38;3.42;;;;;;;8.91;92.45;99347.94;5080632;28;20036;-63
2023/11/12 04:19:02;;;;;;;6.00;3.53;;;;;;;9.01;92.36;99342.50;5081041;28;20032;-63
2023/11/12 04:21:29;;;;;;;3.45;3.15;;;;;;;8.98;91.98;99353.41;5078630;28;20039;-63
2023/11/12 04:23:54;;;;;;;7.07;3.45;;;;;;;8.89;91.99;99347.28;5081139;28;20033;-63
2023/11/12 04:26:19;;;;;;;5.93;2.92;;;;;;;8.83;92.73;99350.56;5080219;28;20040;-63
2023/11/12 04:28:45;;;;;;;4.53;3.25;;;;;;;8.89;93.09;99360.47;5080866;28;20036;-63
2023/11/12 04:31:10;;;;;;;5.40;3.60;;;;;;;8.92;93.41;99368.06;5080435;28;20052;-63
2023/11/12 04:33:36;;;;;;;4.53;3.78;;;;;;;9.01;92.78;99376.84;5080571;28;20311;-64
2023/11/12 04:36:01;;;;;;;6.97;3.63;;;;;;;9.04;93.14;99382.63;5080311;28;20037;-63
2023/11/12 04:38:27;;;;;;;4.40;2.83;;;;;;;9.06;92.03;99393.03;5080131;28;20040;-63
2023/11/12 04:40:53;;;;;;;5.50;2.72;;;;;;;8.85;92.05;99389.00;5079919;28;20074;-62
2023/11/12 04:43:18;;;;;;;2.38;1.88;;;;;;;8.65;93.00;99392.88;5080685;28;20028;-63
2023/11/12 04:45:44;;;;;;;6.22;2.30;;;;;;;8.70;93.97;99395.03;5080551;28;20033;-63
2023/11/12 04:48:11;;;;;;;6.75;3.25;;;;;;;8.77;93.95;99393.44;5079725;28;20062;-62
2023/11/12 04:50:37;;;;;;;2.22;1.77;;;;;;;8.83;93.07;99395.44;5088178;28;20032;-63
2023/11/12 04:53:04;;;;;;;3.88;2.20;;;;;;;8.75;92.23;99406.78;5080223;28;20044;-63
2023/11/12 04:55:29;;;;;;;2.08;1.63;;;;;;;8.54;92.86;99399.28;5080809;28;20036;-63
2023/11/12 04:57:55;;;;;;;33.92;10.13;;;;;;;8.40;94.45;99420.97;5082166;28;20036;-63
2023/11/12 05:00:20;;;;;;;40.63;13.48;;;;;;;8.34;95.52;99415.47;5091985;28;20051;-62
2023/11/12 05:02:46;;;;;;;13.95;5.28;;;;;;;8.46;94.61;99415.06;5084462;28;20036;-63
2023/11/12 05:05:11;;;;;;;54.22;20.60;;;;;;;8.44;94.85;99416.19;5084523;28;20341;-63
2023/11/12 05:07:37;;;;;;;3.67;2.72;;;;;;;8.55;93.53;99414.13;5084402;28;20357;-63
2023/11/12 05:10:05;;;;;;;4.88;2.92;;;;;;;8.54;93.50;99428.28;5084474;28;20058;-64
2023/11/12 05:12:30;;;;;;;13.40;4.70;;;;;;;8.25;94.58;99436.47;5083513;28;20067;-63
2023/11/12 05:14:56;;;;;;;7.70;4.00;;;;;;;8.01;96.38;99423.94;5084306;28;20326;-62
2023/11/12 05:17:22;;;;;;;4.50;2.30;;;;;;;8.01;96.85;99431.00;5083538;28;20048;-63
2023/11/12 05:19:48;;;;;;;4.22;2.65;;;;;;;7.88;98.19;99434.03;5083573;28;20036;-63
2023/11/12 05:22:13;;;;;;;7.60;4.43;;;;;;;8.18;97.25;99437.25;5083270;28;20044;-63
2023/11/12 05:24:39;;;;;;;6.75;3.58;;;;;;;8.38;95.87;99430.00;5084039;28;20077;-63
2023/11/12 05:27:04;;;;;;;6.35;3.35;;;;;;;8.56;95.52;99446.59;5083307;28;20040;-63
2023/11/12 05:29:30;;;;;;;3.33;2.67;;;;;;;8.60;94.48;99445.31;5084429;28;20033;-64
2023/11/12 05:31:56;;;;;;;10.50;6.70;;;;;;;8.75;94.34;99451.66;5083860;28;20051;-63
2023/11/12 05:34:22;;;;;;;32.67;16.15;;;;;;;8.77;93.58;99464.69;5092256;28;20059;-63
2023/11/12 05:36:47;;;;;;;22.52;10.77;;;;;;;8.77;93.07;99459.41;5085223;28;20078;-62
2023/11/12 05:39:14;;;;;;;16.17;8.68;;;;;;;8.77;93.31;99465.53;5084034;28;20402;-63
2023/11/12 05:41:40;;;;;;;21.70;10.68;;;;;;;8.82;93.04;99472.97;5083393;28;20316;-64
2023/11/12 05:44:06;;;;;;;16.05;7.85;;;;;;;8.89;93.19;99484.56;5083728;28;20052;-64
2023/11/12 05:46:31;;;;;;;9.35;5.50;;;;;;;8.93;93.06;99485.91;5083798;28;20089;-64
2023/11/12 05:48:57;;;;;;;3.83;3.05;;;;;;;8.95;92.44;99489.22;5082968;28;20044;-63
2023/11/12 05:51:22;;;;;;;4.72;2.70;;;;;;;8.99;92.26;99490.56;5086480;28;20032;-62
2023/11/12 05:53:47;;;;;;;8.35;5.43;;;;;;;8.90;92.27;99473.84;5087533;28;20045;-61
2023/11/12 05:56:13;;;;;;;7.45;5.40;;;;;;;8.85;92.18;99473.50;5089913;28;20274;-63
2023/11/12 05:58:39;;;;;;;12.45;8.48;;;;;;;8.83;92.52;99470.19;5083358;28;20321;-64
2023/11/12 06:01:04;;;;;;;64.90;35.47;;;;;;;8.84;92.71;99460.44;5082269;28;20329;-62
2023/11/12 06:03:30;;;;;;;103.15;53.40;;;;;;;8.86;92.64;99463.75;5083486;28;20044;-62
2023/11/12 06:05:55;;;;;;;118.88;59.67;;;;;;;8.94;92.77;99469.06;5083355;28;20028;-61
2023/11/12 06:08:22;;;;;;;84.05;50.10;;;;;;;9.05;92.42;99483.81;5083810;28;20033;-62
2023/11/12 06:10:48;;;;;;;89.45;49.20;;;;;;;9.18;92.45;99490.31;5082524;28;20024;-62
2023/11/12 06:13:15;;;;;;;64.35;41.08;;;;;;;9.31;93.07;99489.03;5081876;28;20365;-62
2023/11/12 06:15:41;;;;;;;40.38;27.30;;;;;;;9.46;93.31;99508.59;5082349;28;20059;-62
2023/11/12 06:18:07;;;;;;;27.77;19.55;;;;;;;9.59;93.88;99517.72;5082555;28;20207;-62
2023/11/12 06:20:33;;;;;;;23.13;15.60;;;;;;;9.80;93.62;99519.91;5081995;28;20043;-62
2023/11/12 06:22:58;;;;;;;10.70;8.65;;;;;;;9.84;92.85;99523.06;5081882;28;20044;-62
2023/11/12 06:25:25;;;;;;;11.95;8.25;;;;;;;9.88;92.13;99512.00;5082706;28;20194;-62
2023/11/12 06:27:51;;;;;;;17.35;11.60;;;;;;;10.13;91.50;99512.03;5082906;28;20036;-62
2023/11/12 06:30:16;;;;;;;76.57;29.88;;;;;;;10.39;90.57;99531.25;5083024;28;20028;-62
2023/11/12 06:32:43;;;;;;;4.57;2.53;;;;;;;9.91;91.61;99519.59;5082320;28;20203;-61
2023/11/12 06:35:08;;;;;;;4.35;2.10;;;;;;;9.80;94.37;99519.09;5082100;28;20059;-62
2023/11/12 06:37:33;;;;;;;11.63;4.88;;;;;;;9.93;95.51;99517.63;5081882;28;20032;-63
2023/11/12 06:39:59;;;;;;;23.75;11.80;;;;;;;10.15;93.62;99526.75;5082391;28;20032;-63
2023/11/12 06:42:25;;;;;;;2.63;2.40;;;;;;;10.41;92.50;99541.69;5082144;28;20036;-62
2023/11/12 06:44:51;;;;;;;2.95;2.67;;;;;;;10.35;93.49;99534.38;5082245;28;20028;-65
2023/11/12 06:47:16;;;;;;;3.25;2.15;;;;;;;10.17;94.24;99531.88;5082607;28;20045;-63
2023/11/12 06:49:42;;;;;;;3.83;2.53;;;;;;;10.20;94.73;99534.22;5082246;28;20239;-62
2023/11/12 06:52:07;;;;;;;3.20;1.88;;;;;;;10.41;94.69;99546.97;5082309;28;20070;-62
2023/11/12 06:54:33;;;;;;;4.38;2.20;;;;;;;10.61;93.15;99545.66;5082786;28;20041;-62
2023/11/12 06:56:59;;;;;;;2.33;1.92;;;;;;;10.60;91.59;99551.94;5089426;28;20040;-62
2023/11/12 06:59:25;;;;;;;3.38;2.08;;;;;;;10.66;93.17;99563.69;5092211;28;20044;-63
2023/11/12 07:01:51;;;;;;;2.42;2.05;;;;;;;10.83;92.24;99554.72;5090577;28;20381;-62
2023/11/12 07:04:16;;;;;;;17.38;8.40;;;;;;;10.97;91.69;99567.28;5094178;28;20059;-62
2023/11/12 07:06:42;;;;;;;6.90;3.97;;;;;;;11.19;92.00;99548.00;5079504;28;20082;-62
2023/11/12 07:09:08;;;;;;;33.40;13.88;;;;;;;11.28;89.99;99561.22;5090206;28;20098;-62
2023/11/12 07:11:33;;;;;;;13.93;6.93;;;;;;;11.48;91.40;99559.84;5084116;28;20516;-62
2023/11/12 07:13:59;;;;;;;9.18;4.15;;;;;;;11.69;89.94;99556.63;5087687;28;20052;-62
2023/11/12 07:16:25;;;;;;;27.27;10.73;;;;;;;11.96;89.53;99563.28;5080827;28;20070;-62
2023/11/12 07:18:50;;;;;;;5.20;2.90;;;;;;;12.15;87.73;99570.78;5080629;28;20036;-63
2023/11/12 07:21:29;;;;;;;6.18;4.40;;;;;;;12.26;87.11;99574.88;5079803;28;20036;-62
2023/11/12 07:23:55;;;;;;;4.13;3.53;;;;;;;12.19;87.35;99577.41;5080936;28;20049;-62
2023/11/12 07:26:21;;;;;;;5.88;3.40;;;;;;;12.12;86.67;99582.59;5080323;28;20037;-62
2023/11/12 07:28:46;;;;;;;2.65;1.67;;;;;;;12.10;86.89;99589.06;5080893;28;20104;-62
2023/11/12 07:31:13;;;;;;;2.30;2.05;;;;;;;12.11;86.99;99591.56;5080450;28;20254;-63
2023/11/12 07:33:38;;;;;;;3.53;2.50;;;;;;;12.13;87.20;99596.69;5081098;28;20036;-62
2023/11/12 07:36:05;;;;;;;5.05;2.90;;;;;;;12.05;86.55;99583.47;5081527;28;20059;-62
2023/11/12 07:38:31;;;;;;;88.72;42.17;;;;;;;11.99;88.55;99578.84;5079918;28;20386;-62
2023/11/12 07:40:56;;;;;;;18.63;13.10;;;;;;;11.83;89.58;99579.78;5090328;28;20020;-62
2023/11/12 07:43:22;;;;;;;11.43;8.63;;;;;;;11.93;89.87;99579.56;5080804;28;20039;-62
2023/11/12 07:45:47;;;;;;;7.13;3.00;;;;;;;12.00;89.24;99581.34;5080914;28;20034;-63
2023/11/12 07:48:12;;;;;;;4.53;2.10;;;;;;;12.05;88.63;99578.16;5089799;28;20035;-64
2023/11/12 07:50:38;;;;;;;3.35;1.70;;;;;;;12.12;87.93;99579.09;5081337;28;20036;-63
2023/11/12 07:53:04;;;;;;;2.88;1.80;;;;;;;12.21;87.32;99575.41;5081410;28;20358;-63
2023/11/12 07:55:29;;;;;;;8.02;3.33;;;;;;;12.25;87.29;99568.72;5081716;28;20043;-63
2023/11/12 07:57:55;;;;;;;4.65;3.47;;;;;;;12.25;88.61;99571.38;5081481;28;20055;-63
2023/11/12 08:00:22;;;;;;;5.13;3.88;;;;;;;12.28;89.88;99563.06;5080251;28;20032;-64
2023/11/12 08:02:48;;;;;;;7.43;2.70;;;;;;;12.31;89.94;99553.91;5090630;28;20112;-63
2023/11/12 08:05:14;;;;;;;3.78;2.65;;;;;;;12.36;90.21;99560.34;5080597;28;20374;-64
2023/11/12 08:07:40;;;;;;;3.97;2.33;;;;;;;12.30;90.44;99563.72;5081486;28;20032;-63
2023/11/12 08:10:08;;;;;;;4.65;2.80;;;;;;;12.39;89.66;99572.44;5080760;28;20025;-63
2023/11/12 08:12:37;;;;;;;2.97;2.22;;;;;;;12.43;88.78;99577.22;5081272;28;20044;-62
2023/11/12 08:15:05;;;;;;;3.80;3.00;;;;;;;12.45;89.57;99577.03;5088605;28;20029;-63
2023/11/12 08:17:30;;;;;;;5.38;3.40;;;;;;;12.50;90.09;99579.19;5080223;28;20095;-63
2023/11/12 08:19:56;;;;;;;6.65;2.83;;;;;;;12.55;90.10;99577.66;5079937;28;20036;-63
2023/11/12 08:22:21;;;;;;;3.13;2.05;;;;;;;12.55;89.98;99576.84;5080268;28;20352;-63
2023/11/12 08:24:47;;;;;;;4.03;2.20;;;;;;;12.55;89.19;99577.66;5080035;28;20031;-63
2023/11/12 08:27:13;;;;;;;2.65;1.90;;;;;;;12.62;88.83;99578.59;5080562;28;20093;-63
2023/11/12 08:29:38;;;;;;;5.95;2.30;;;;;;;12.68;88.59;99580.53;5080157;28;20032;-63
2023/11/12 08:32:05;;;;;;;3.95;2.28;;;;;;;12.77;87.35;99578.63;5079879;28;20090;-63
2023/11/12 08:34:31;;;;;;;5.97;2.95;;;;;;;12.86;88.52;99571.41;5081743;28;20032;-63
2023/11/12 08:36:56;;;;;;;20.33;18.63;;;;;;;12.76;88.22;99572.50;5080888;28;20199;-63
2023/11/12 08:39:23;;;;;;;5.35;3.40;;;;;;;12.98;87.43;99570.78;5080715;28;20043;-63
2023/11/12 08:41:49;;;;;;;3.72;2.47;;;;;;;13.08;86.22;99574.00;5081028;28;20025;-63
2023/11/12 08:44:15;;;;;;;5.47;3.17;;;;;;;13.22;85.79;99568.91;5080882;28;20250;-63
2023/11/12 08:46:42;;;;;;;5.28;3.83;;;;;;;13.23;83.35;99568.72;5080498;28;20261;-63
2023/11/12 08:49:08;;;;;;;6.00;3.38;;;;;;;13.10;85.41;99571.16;5080673;28;20112;-63
2023/11/12 08:51:34;;;;;;;4.55;2.97;;;;;;;13.20;86.17;99586.88;5078800;28;20254;-63
2023/11/12 08:53:59;;;;;;;5.45;2.38;;;;;;;13.20;84.85;99592.19;5080824;28;20051;-63
2023/11/12 08:56:29;;;;;;;4.95;2.97;;;;;;;13.18;83.90;99603.00;5080993;28;20285;-64
2023/11/12 08:58:58;;;;;;;8.00;7.30;;;;;;;13.29;84.78;99605.22;5080530;28;20312;-63
2023/11/12 09:01:24;;;;;;;2.88;2.10;;;;;;;13.37;83.44;99612.28;5080646;28;20103;-63
2023/11/12 09:03:50;;;;;;;3.60;2.75;;;;;;;13.41;82.77;99608.25;5081492;28;20277;-64
2023/11/12 09:06:15;;;;;;;3.83;2.42;;;;;;;13.42;82.80;99597.41;5080571;28;20041;-63
2023/11/12 09:08:41;;;;;;;4.05;2.38;;;;;;;13.51;82.30;99599.97;5079790;28;20044;-63
2023/11/12 09:11:06;;;;;;;2.78;1.95;;;;;;;13.40;82.50;99590.63;5080422;28;20035;-63
2023/11/12 09:13:32;;;;;;;31.63;12.60;;;;;;;13.40;80.35;99586.13;5080178;28;20180;-63
2023/11/12 09:15:58;;;;;;;97.05;35.63;;;;;;;13.32;80.27;99602.19;5080760;28;20048;-63
2023/11/12 09:18:24;;;;;;;75.38;24.58;;;;;;;13.39;79.70;99591.63;5080327;28;20029;-62
2023/11/12 09:20:51;;;;;;;22.17;7.50;;;;;;;13.38;78.88;99596.13;5086346;28;20020;-63
2023/11/12 09:23:17;;;;;;;10.18;5.53;;;;;;;13.29;79.35;99602.56;5082102;28;20172;-62
2023/11/12 09:25:44;;;;;;;5.32;2.15;;;;;;;13.24;80.63;99602.28;5079668;28;20052;-63
2023/11/12 09:28:09;;;;;;;5.90;1.80;;;;;;;13.41;79.69;99597.59;5080439;28;20041;-63
2023/11/12 09:30:36;;;;;;;1.80;1.45;;;;;;;13.50;80.10;99590.34;5079186;28;20814;-63
2023/11/12 09:33:04;;;;;;;3.78;1.80;;;;;;;13.57;80.33;99578.81;5088678;28;20116;-63
2023/11/12 09:35:30;;;;;;;10.70;6.57;;;;;;;13.53;81.75;99572.22;5079947;28;20024;-63
2023/11/12 09:37:56;;;;;;;5.85;3.20;;;;;;;13.59;81.24;99560.00;5088606;28;20063;-62
2023/11/12 09:40:22;;;;;;;6.75;4.30;;;;;;;13.73;84.40;99556.50;5079797;28;20317;-63
2023/11/12 09:42:52;;;;;;;16.33;6.18;;;;;;;13.74;82.94;99539.53;5080164;28;20089;-63
2023/11/12 09:45:18;;;;;;;17.85;6.63;;;;;;;13.74;81.20;99544.84;5079944;28;20033;-63
2023/11/12 09:47:57;;;;;;;3.65;3.35;;;;;;;13.88;78.94;99554.63;5082519;28;20040;-63
2023/11/12 09:50:24;;;;;;;6.10;4.03;;;;;;;13.98;77.75;99547.16;5082644;28;20329;-63
2023/11/12 09:52:51;;;;;;;2.53;1.65;;;;;;;13.97;76.01;99550.00;5083874;28;20107;-63
2023/11/12 09:55:19;;;;;;;2.05;1.25;;;;;;;14.03;76.10;99547.41;5083310;28;20401;-63
2023/11/12 09:57:46;;;;;;;2.70;1.10;;;;;;;14.10;74.30;99549.31;5083678;28;20068;-64
2023/11/12 10:00:12;;;;;;;3.75;0.90;;;;;;;14.09;72.82;99545.00;5083776;28;20041;-64
2023/11/12 10:02:39;;;;;;;7.72;7.07;;;;;;;14.07;74.92;99551.34;5083357;28;20036;-64
2023/11/12 10:05:10;;;;;;;5.50;3.15;;;;;;;14.10;74.94;99542.16;5083287;28;20186;-63
2023/11/12 10:07:42;;;;;;;1.48;1.25;;;;;;;14.10;74.68;99542.16;5083297;28;20040;-64
2023/11/12 10:10:27;;;;;;;14.80;4.15;;;;;;;14.15;74.61;99529.09;5082641;28;20398;-64
2023/11/12 10:12:55;;;;;;;8.07;1.98;;;;;;;14.19;73.78;99546.34;5082867;28;20048;-64
2023/11/12 10:15:25;;;;;;;9.82;3.65;;;;;;;14.17;69.79;99543.03;5091363;28;20518;-64
2023/11/12 10:17:54;;;;;;;35.03;13.07;;;;;;;14.23;69.85;99534.28;5082887;28;20044;-65
2023/11/12 10:20:28;;;;;;;1.67;1.30;;;;;;;14.35;72.88;99539.94;5083210;28;20082;-64
2023/11/12 10:22:54;;;;;;;2.60;1.10;;;;;;;14.49;72.36;99538.25;5083261;28;20061;-64
2023/11/12 10:25:39;;;;;;;0.77;0.70;;;;;;;14.59;69.64;99533.44;5083066;28;20032;-64
2023/11/12 10:28:08;;;;;;;3.15;1.65;;;;;;;14.64;69.63;99521.19;5082639;28;20112;-65
2023/11/12 10:30:37;;;;;;;3.50;3.22;;;;;;;14.76;70.04;99517.97;5082617;28;20254;-64
2023/11/12 10:33:17;;;;;;;23.52;9.02;;;;;;;14.82;69.38;99515.38;5082396;28;20040;-64
2023/11/12 10:35:43;;;;;;;17.23;6.22;;;;;;;14.76;69.41;99507.31;5082915;28;20032;-65
2023/11/12 10:38:10;;;;;;;1.75;1.45;;;;;;;14.75;69.44;99500.34;5082986;28;20046;-65
2023/11/12 10:40:36;;;;;;;1.45;1.10;;;;;;;14.81;64.97;99499.56;5082755;28;20576;-64
2023/11/12 10:43:09;;;;;;;1.88;0.82;;;;;;;14.79;63.74;99488.28;5081859;28;20280;-65
2023/11/12 10:45:35;;;;;;;5.63;4.18;;;;;;;14.70;62.23;99490.28;5081493;28;20056;-63
2023/11/12 10:48:06;;;;;;;2.78;1.65;;;;;;;14.69;64.40;99491.28;5081881;28;20043;-64
2023/11/12 10:50:33;;;;;;;1.50;0.90;;;;;;;14.68;63.68;99485.13;5081572;28;20028;-64
2023/11/12 10:53:00;;;;;;;9.55;3.67;;;;;;;14.76;63.55;99492.16;5082300;28;20072;-64
2023/11/12 10:55:25;;;;;;;5.53;1.75;;;;;;;14.76;64.82;99494.00;5081305;28;20329;-64
2023/11/12 10:57:54;;;;;;;3.13;1.00;;;;;;;14.66;61.42;99502.34;5081745;28;20108;-64
2023/11/12 11:00:19;;;;;;;1.40;0.98;;;;;;;14.68;59.37;99503.78;5090384;28;20032;-64
2023/11/12 11:02:47;;;;;;;4.00;1.92;;;;;;;14.58;63.36;99502.47;5091739;28;20352;-65
2023/11/12 11:05:13;;;;;;;11.77;4.78;;;;;;;14.33;59.32;99488.69;5081434;28;20040;-65
2023/11/12 11:07:39;;;;;;;2.03;1.23;;;;;;;14.51;61.25;99514.91;5082939;28;20070;-64
2023/11/12 11:10:06;;;;;;;1.75;1.00;;;;;;;14.53;62.97;99504.88;5084710;28;20037;-64
2023/11/12 11:12:33;;;;;;;1.45;0.80;;;;;;;14.57;63.05;99499.00;5088466;28;20104;-64
2023/11/12 11:15:35;;;;;;;1.40;1.30;;;;;;;14.58;62.46;99494.50;5086141;28;20028;-64
2023/11/12 11:18:03;;;;;;;2.45;1.55;;;;;;;14.64;62.92;99488.38;5082247;28;20101;-64
2023/11/12 11:21:06;;;;;;;2.47;1.27;;;;;;;14.66;62.71;99481.00;5082083;28;20036;-64
2023/11/12 11:23:52;;;;;;;2.05;1.77;;;;;;;14.68;64.87;99479.81;5087799;28;20067;-64
2023/11/12 11:26:27;;;;;;;2.45;0.98;;;;;;;14.66;61.19;99473.03;5082112;28;20041;-64
2023/11/12 11:29:09;;;;;;;1.95;0.90;;;;;;;14.79;62.31;99466.94;5081405;28;20035;-64
2023/11/12 11:31:39;;;;;;;1.70;0.90;;;;;;;14.91;60.75;99460.06;5085354;28;20059;-64
2023/11/12 11:34:07;;;;;;;2.58;0.90;;;;;;;14.96;60.39;99463.78;5085546;28;20392;-64